createdAt,value
2022-11-17T00:00:32.408Z,8.24
2022-11-17T00:03:00.501Z,8.18
2022-11-17T00:05:28.486Z,7.99
2022-11-17T00:07:56.533Z,8.23
2022-11-17T00:10:25.878Z,8.09
2022-11-17T00:13:11.386Z,7.46
2022-11-17T00:15:43.295Z,8.00
2022-11-17T00:18:28.516Z,7.41
2022-11-17T00:21:25.445Z,8.21
2022-11-17T00:23:53.783Z,8.12
2022-11-17T00:26:24.865Z,8.27
2022-11-17T00:28:54.817Z,8.07
2022-11-17T00:31:41.350Z,7.33
2022-11-17T00:34:12.379Z,8.09
2022-11-17T00:36:42.614Z,7.98
2022-11-17T00:39:11.505Z,7.93
2022-11-17T00:41:41.345Z,8.04
2022-11-17T00:44:10.100Z,8.20
2022-11-17T00:46:38.770Z,8.14
2022-11-17T00:49:07.964Z,8.10
2022-11-17T00:51:36.648Z,8.18
2022-11-17T00:54:06.169Z,8.15
2022-11-17T00:56:34.106Z,7.78
2022-11-17T00:59:03.728Z,8.18
2022-11-17T01:01:32.340Z,8.27
2022-11-17T01:04:04.104Z,8.16
2022-11-17T01:06:34.253Z,8.16
2022-11-17T01:09:02.693Z,8.15
2022-11-17T01:11:30.672Z,7.93
2022-11-17T01:14:00.130Z,7.89
2022-11-17T01:16:30.896Z,7.96
2022-11-17T01:19:01.018Z,8.25
2022-11-17T01:21:30.293Z,7.82
2022-11-17T01:23:59.695Z,8.03
2022-11-17T01:26:29.561Z,7.86
2022-11-17T01:28:57.808Z,7.51
2022-11-17T01:31:28.157Z,7.99
2022-11-17T01:33:58.017Z,8.05
2022-11-17T01:36:28.180Z,8.21
2022-11-17T01:38:56.725Z,8.04
2022-11-17T01:41:26.443Z,8.08
2022-11-17T01:43:56.320Z,7.91
2022-11-17T01:46:31.105Z,7.79
2022-11-17T01:49:04.861Z,7.98
2022-11-17T01:51:36.150Z,7.94
2022-11-17T01:54:04.563Z,7.87
2022-11-17T01:56:38.881Z,7.93
2022-11-17T01:59:10.767Z,8.09
2022-11-17T02:01:55.713Z,8.10
2022-11-17T02:04:30.576Z,8.04
2022-11-17T02:07:04.244Z,7.93
2022-11-17T02:09:34.426Z,8.34
2022-11-17T02:12:03.557Z,8.21
2022-11-17T02:14:31.852Z,8.22
2022-11-17T02:17:07.010Z,7.28
2022-11-17T02:19:41.257Z,8.12
2022-11-17T02:22:32.920Z,8.13
2022-11-17T02:25:28.027Z,8.04
2022-11-17T02:28:06.096Z,7.56
2022-11-17T02:30:39.665Z,7.83
2022-11-17T02:33:14.317Z,8.08
2022-11-17T02:35:50.619Z,7.78
2022-11-17T02:38:28.299Z,7.96
2022-11-17T02:41:06.061Z,8.01
2022-11-17T02:44:00.735Z,7.91
2022-11-17T02:46:31.691Z,7.92
2022-11-17T02:49:03.445Z,7.69
2022-11-17T02:51:34.172Z,7.47
2022-11-17T02:54:03.506Z,7.86
2022-11-17T02:56:31.467Z,8.08
2022-11-17T02:59:03.988Z,7.39
2022-11-17T03:01:52.040Z,8.11
2022-11-17T03:04:31.981Z,7.49
2022-11-17T03:07:12.961Z,7.42
2022-11-17T03:09:50.404Z,7.77
2022-11-17T03:12:24.403Z,7.61
2022-11-17T03:15:05.452Z,7.64
2022-11-17T03:17:38.347Z,7.75
2022-11-17T03:20:14.394Z,7.57
2022-11-17T03:22:49.774Z,7.22
2022-11-17T03:25:20.899Z,7.66
2022-11-17T03:27:52.811Z,7.63
2022-11-17T03:30:23.104Z,7.49
2022-11-17T03:32:53.073Z,7.68
2022-11-17T03:35:26.936Z,7.23
2022-11-17T03:37:58.253Z,7.52
2022-11-17T03:40:29.042Z,7.48
2022-11-17T03:43:01.921Z,7.52
2022-11-17T03:45:34.980Z,7.52
2022-11-17T03:48:09.693Z,7.52
2022-11-17T03:50:42.383Z,7.40
2022-11-17T03:53:10.453Z,7.28
2022-11-17T03:55:47.434Z,7.35
2022-11-17T03:58:18.568Z,7.39
2022-11-17T04:00:52.638Z,7.30
2022-11-17T04:03:22.625Z,7.30
2022-11-17T04:05:50.794Z,6.00
2022-11-17T04:08:19.754Z,7.18
2022-11-17T04:11:05.048Z,7.42
2022-11-17T04:13:58.908Z,7.19
2022-11-17T04:16:28.249Z,7.40
2022-11-17T04:18:58.976Z,7.12
2022-11-17T04:21:27.246Z,7.17
2022-11-17T04:23:56.090Z,7.38
2022-11-17T04:26:41.520Z,7.16
2022-11-17T04:29:09.599Z,7.27
2022-11-17T04:31:39.018Z,7.39
2022-11-17T04:34:07.994Z,7.18
2022-11-17T04:36:40.278Z,7.27
2022-11-17T04:39:08.315Z,7.36
2022-11-17T04:41:54.058Z,7.46
2022-11-17T04:44:23.698Z,7.00
2022-11-17T04:46:53.225Z,7.12
2022-11-17T04:49:22.329Z,6.33
2022-11-17T04:51:51.477Z,7.12
2022-11-17T04:54:21.057Z,6.68
2022-11-17T04:56:49.201Z,7.03
2022-11-17T04:59:17.070Z,7.03
2022-11-17T05:01:45.104Z,6.96
2022-11-17T05:04:36.678Z,6.85
2022-11-17T05:07:05.209Z,6.47
2022-11-17T05:09:33.825Z,6.77
2022-11-17T05:12:21.873Z,6.71
2022-11-17T05:14:50.566Z,6.61
2022-11-17T05:17:17.953Z,5.58
2022-11-17T05:19:48.616Z,6.80
2022-11-17T05:22:36.495Z,5.16
2022-11-17T05:25:05.839Z,6.79
2022-11-17T05:27:34.907Z,6.71
2022-11-17T05:30:03.168Z,6.73
2022-11-17T05:32:31.216Z,6.59
2022-11-17T05:35:00.468Z,6.41
2022-11-17T05:37:28.337Z,6.91
2022-11-17T05:39:56.266Z,6.72
2022-11-17T05:42:24.273Z,6.71
2022-11-17T05:44:52.612Z,6.74
2022-11-17T05:47:20.674Z,6.84
2022-11-17T05:49:48.660Z,6.87
2022-11-17T05:52:17.951Z,6.53
2022-11-17T05:54:45.890Z,6.62
2022-11-17T05:57:17.778Z,6.89
2022-11-17T05:59:49.457Z,6.56
2022-11-17T06:02:23.564Z,6.86
2022-11-17T06:04:52.580Z,6.80
2022-11-17T06:07:22.105Z,6.83
2022-11-17T06:09:52.016Z,6.66
2022-11-17T06:12:20.000Z,6.88
2022-11-17T06:14:47.902Z,6.66
2022-11-17T06:17:22.848Z,6.72
2022-11-17T06:19:56.623Z,6.27
2022-11-17T06:22:28.181Z,6.09
2022-11-17T06:24:56.898Z,5.84
2022-11-17T06:27:25.859Z,6.53
2022-11-17T06:29:55.099Z,6.47
2022-11-17T06:32:23.472Z,6.47
2022-11-17T06:34:56.093Z,6.39
2022-11-17T06:37:26.437Z,6.49
2022-11-17T06:39:54.544Z,6.29
2022-11-17T06:42:43.898Z,4.99
2022-11-17T06:45:13.004Z,6.34
2022-11-17T06:47:40.890Z,6.55
2022-11-17T06:50:09.228Z,6.64
2022-11-17T06:52:38.555Z,5.97
2022-11-17T06:55:07.593Z,6.52
2022-11-17T06:57:35.630Z,6.49
2022-11-17T07:00:04.174Z,6.49
2022-11-17T07:02:32.770Z,6.64
2022-11-17T07:05:00.661Z,6.45
2022-11-17T07:07:28.719Z,6.68
2022-11-17T07:09:58.053Z,6.63
2022-11-17T07:12:25.964Z,6.16
2022-11-17T07:14:54.064Z,6.52
2022-11-17T07:17:21.948Z,6.60
2022-11-17T07:19:50.372Z,6.59
2022-11-17T07:22:18.248Z,6.50
2022-11-17T07:24:46.326Z,5.92
2022-11-17T07:27:15.682Z,6.65
2022-11-17T07:29:43.683Z,6.22
2022-11-17T07:32:13.719Z,6.52
2022-11-17T07:34:42.556Z,6.57
2022-11-17T07:37:10.644Z,6.61
2022-11-17T07:39:38.613Z,6.47
2022-11-17T07:42:06.575Z,6.38
2022-11-17T07:44:35.879Z,6.60
2022-11-17T07:47:03.818Z,6.51
2022-11-17T07:49:31.719Z,6.61
2022-11-17T07:51:59.676Z,6.69
2022-11-17T07:54:27.754Z,6.62
2022-11-17T07:56:55.685Z,6.72
2022-11-17T07:59:23.693Z,6.73
2022-11-17T08:01:53.025Z,6.78
2022-11-17T08:04:21.485Z,6.78
2022-11-17T08:06:49.610Z,6.53
2022-11-17T08:09:17.670Z,6.78
2022-11-17T08:11:45.675Z,6.79
2022-11-17T08:14:13.599Z,6.79
2022-11-17T08:16:41.511Z,6.85
2022-11-17T08:19:11.980Z,6.45
2022-11-17T08:21:41.059Z,6.77
2022-11-17T08:24:09.559Z,5.51
2022-11-17T08:26:37.543Z,6.70
2022-11-17T08:29:05.600Z,6.71
2022-11-17T08:31:34.167Z,6.74
2022-11-17T08:34:02.090Z,6.69
2022-11-17T08:36:31.567Z,6.39
2022-11-17T08:38:59.569Z,6.61
2022-11-17T08:41:27.430Z,6.86
2022-11-17T08:43:55.570Z,6.78
2022-11-17T08:46:23.620Z,6.96
2022-11-17T08:48:56.862Z,7.00
2022-11-17T08:51:27.148Z,6.89
2022-11-17T08:53:57.792Z,6.99
2022-11-17T08:56:25.670Z,7.05
2022-11-17T08:58:53.630Z,6.86
2022-11-17T09:01:21.596Z,6.97
2022-11-17T09:03:49.792Z,6.83
2022-11-17T09:06:20.118Z,6.64
2022-11-17T09:08:48.701Z,7.01
2022-11-17T09:11:18.328Z,6.83
2022-11-17T09:13:47.349Z,6.93
2022-11-17T09:16:16.133Z,6.87
2022-11-17T09:18:44.435Z,7.03
2022-11-17T09:21:15.113Z,6.93
2022-11-17T09:23:43.602Z,6.82
2022-11-17T09:26:14.186Z,6.60
2022-11-17T09:28:44.082Z,6.91
2022-11-17T09:31:15.206Z,6.90
2022-11-17T09:33:43.726Z,7.09
2022-11-17T09:36:12.422Z,6.98
2022-11-17T09:38:40.988Z,6.48
2022-11-17T09:41:22.587Z,6.90
2022-11-17T09:43:58.612Z,6.99
2022-11-17T09:46:33.964Z,7.07
2022-11-17T09:49:11.836Z,6.74
2022-11-17T09:51:44.498Z,6.79
2022-11-17T09:54:18.490Z,6.90
2022-11-17T09:56:48.721Z,6.84
2022-11-17T09:59:19.532Z,6.91
2022-11-17T10:01:47.645Z,6.73
2022-11-17T10:04:18.516Z,6.49
2022-11-17T10:06:50.174Z,6.75
2022-11-17T10:09:25.951Z,6.75
2022-11-17T10:11:55.521Z,6.77
2022-11-17T10:14:24.873Z,6.31
2022-11-17T10:16:55.933Z,6.92
2022-11-17T10:19:25.466Z,6.94
2022-11-17T10:21:59.085Z,6.71
2022-11-17T10:24:47.421Z,6.95
2022-11-17T10:27:23.705Z,7.06
2022-11-17T10:30:01.130Z,7.09
2022-11-17T10:32:30.811Z,6.55
2022-11-17T10:35:14.623Z,7.24
2022-11-17T10:37:46.559Z,7.35
2022-11-17T10:40:24.736Z,7.12
2022-11-17T10:43:01.389Z,7.18
2022-11-17T10:45:31.222Z,7.32
2022-11-17T10:48:27.053Z,7.37
2022-11-17T10:50:56.611Z,6.75
2022-11-17T10:53:44.941Z,7.25
2022-11-17T10:56:17.083Z,7.14
2022-11-17T10:59:02.237Z,7.35
2022-11-17T11:01:33.892Z,7.24
2022-11-17T11:04:02.718Z,7.17
2022-11-17T11:06:32.187Z,7.16
2022-11-17T11:09:03.203Z,7.29
2022-11-17T11:11:41.546Z,7.12
2022-11-17T11:14:18.534Z,6.45
2022-11-17T11:16:50.532Z,7.63
2022-11-17T11:19:20.728Z,6.99
2022-11-17T11:22:11.330Z,7.49
2022-11-17T11:24:46.224Z,7.29
2022-11-17T11:27:28.434Z,7.36
2022-11-17T11:30:03.541Z,7.67
2022-11-17T11:32:43.968Z,7.87
2022-11-17T11:35:37.841Z,7.73
2022-11-17T11:38:18.132Z,7.76
2022-11-17T11:40:49.982Z,7.79
2022-11-17T11:43:32.354Z,7.99
2022-11-17T11:46:09.509Z,8.06
2022-11-17T11:48:41.962Z,8.07
2022-11-17T11:51:15.746Z,8.01
2022-11-17T11:53:52.687Z,7.44
2022-11-17T11:56:26.316Z,8.09
2022-11-17T11:59:01.734Z,8.00
2022-11-17T12:01:38.265Z,7.60
2022-11-17T12:04:19.913Z,7.25
2022-11-17T12:06:54.111Z,7.67
2022-11-17T12:09:47.352Z,7.72
2022-11-17T12:12:17.335Z,7.69
2022-11-17T12:15:13.607Z,7.96
2022-11-17T12:17:59.549Z,7.80
2022-11-17T12:20:55.170Z,7.84
2022-11-17T12:23:59.522Z,7.94
2022-11-17T12:26:29.418Z,7.34
2022-11-17T12:29:28.788Z,7.45
2022-11-17T12:31:58.156Z,7.59
2022-11-17T12:34:31.837Z,7.68
2022-11-17T12:37:21.687Z,7.83
2022-11-17T12:39:57.904Z,7.73
2022-11-17T12:42:26.213Z,7.55
2022-11-17T12:44:59.169Z,7.61
2022-11-17T12:47:29.080Z,7.68
2022-11-17T12:50:28.550Z,7.53
2022-11-17T12:53:26.539Z,7.47
2022-11-17T12:56:11.177Z,7.45
2022-11-17T12:58:49.825Z,7.46
2022-11-17T13:01:25.228Z,7.23
2022-11-17T13:03:59.012Z,7.16
2022-11-17T13:06:35.895Z,7.33
2022-11-17T13:09:08.015Z,7.44
2022-11-17T13:11:36.440Z,7.66
2022-11-17T13:14:12.264Z,7.41
2022-11-17T13:16:45.759Z,7.85
2022-11-17T13:19:35.040Z,7.64
2022-11-17T13:22:05.704Z,7.49
2022-11-17T13:24:37.574Z,7.86
2022-11-17T13:27:08.544Z,7.82
2022-11-17T13:29:36.745Z,7.77
2022-11-17T13:32:20.327Z,7.58
2022-11-17T13:34:53.646Z,7.05
2022-11-17T13:37:23.351Z,7.46
2022-11-17T13:39:58.479Z,7.61
2022-11-17T13:42:28.886Z,7.58
2022-11-17T13:44:59.968Z,7.53
2022-11-17T13:47:42.282Z,7.47
2022-11-17T13:50:39.553Z,7.44
2022-11-17T13:53:22.906Z,7.50
2022-11-17T13:55:53.359Z,7.61
2022-11-17T13:58:33.586Z,7.39
2022-11-17T14:01:01.772Z,7.27
2022-11-17T14:03:38.164Z,7.37
2022-11-17T14:06:07.600Z,7.33
2022-11-17T14:08:37.006Z,7.43
2022-11-17T14:11:30.488Z,7.67
2022-11-17T14:14:01.045Z,7.57
2022-11-17T14:16:39.226Z,7.60
2022-11-17T14:19:26.103Z,7.55
2022-11-17T14:22:05.255Z,7.50
2022-11-17T14:24:33.649Z,7.40
2022-11-17T14:27:05.112Z,7.59
2022-11-17T14:29:33.183Z,7.71
2022-11-17T14:32:01.351Z,7.66
2022-11-17T14:34:29.216Z,7.52
2022-11-17T14:36:57.545Z,7.48
2022-11-17T14:39:25.468Z,7.63
2022-11-17T14:41:53.683Z,7.67
2022-11-17T14:44:23.746Z,8.04
2022-11-17T14:46:51.626Z,8.04
2022-11-17T14:49:19.523Z,7.85
2022-11-17T14:51:49.589Z,7.85
2022-11-17T14:54:17.877Z,7.90
2022-11-17T14:56:46.060Z,7.78
2022-11-17T14:59:14.986Z,7.99
2022-11-17T15:01:44.608Z,7.95
2022-11-17T15:04:48.131Z,7.82
2022-11-17T15:07:03.752Z,7.61
2022-11-17T15:09:31.769Z,7.51
2022-11-17T15:11:59.953Z,7.53
2022-11-17T15:14:28.280Z,7.70
2022-11-17T15:16:57.562Z,7.76
2022-11-17T15:19:25.421Z,7.84
2022-11-17T15:21:53.937Z,7.70
2022-11-17T15:24:22.396Z,7.47
2022-11-17T15:26:50.305Z,7.55
2022-11-17T15:29:18.649Z,7.64
2022-11-17T15:31:47.144Z,7.69
2022-11-17T15:34:20.241Z,7.65
2022-11-17T15:36:48.790Z,7.69
2022-11-17T15:39:17.349Z,7.45
2022-11-17T15:41:45.621Z,7.49
2022-11-17T15:44:14.099Z,7.49
2022-11-17T15:46:47.121Z,7.38
2022-11-17T15:49:17.466Z,7.41
2022-11-17T15:51:45.830Z,7.62
2022-11-17T15:54:20.009Z,7.48
2022-11-17T15:56:49.242Z,7.57
2022-11-17T15:59:17.285Z,7.47
2022-11-17T16:01:46.084Z,7.44
2022-11-17T16:04:16.736Z,7.61
2022-11-17T16:06:47.240Z,7.65
2022-11-17T16:09:16.351Z,7.63
2022-11-17T16:11:44.784Z,7.19
2022-11-17T16:14:14.743Z,7.32
2022-11-17T16:16:43.657Z,7.49
2022-11-17T16:19:11.585Z,7.53
2022-11-17T16:21:40.890Z,7.52
2022-11-17T16:24:11.971Z,7.52
2022-11-17T16:26:39.931Z,7.69
2022-11-17T16:29:08.806Z,7.65
2022-11-17T16:31:37.988Z,7.68
2022-11-17T16:34:07.994Z,6.81
2022-11-17T16:36:38.710Z,7.57
2022-11-17T16:39:09.495Z,7.55
2022-11-17T16:41:39.072Z,7.60
2022-11-17T16:44:09.344Z,7.50
2022-11-17T16:46:37.126Z,7.48
2022-11-17T16:49:06.625Z,7.40
2022-11-17T16:51:34.619Z,7.35
2022-11-17T16:54:04.988Z,7.29
2022-11-17T16:56:35.819Z,7.37
2022-11-17T16:59:04.202Z,7.29
2022-11-17T17:01:34.768Z,7.28
2022-11-17T17:04:05.580Z,7.18
2022-11-17T17:06:34.621Z,7.32
2022-11-17T17:09:04.916Z,7.15
2022-11-17T17:11:34.350Z,7.29
2022-11-17T17:14:06.689Z,7.11
2022-11-17T17:16:36.142Z,7.28
2022-11-17T17:19:06.370Z,7.42
2022-11-17T17:21:35.123Z,7.43
2022-11-17T17:24:03.794Z,7.31
2022-11-17T17:26:34.540Z,7.45
2022-11-17T17:29:03.668Z,7.44
2022-11-17T17:31:34.013Z,7.49
2022-11-17T17:34:02.423Z,7.43
2022-11-17T17:36:30.974Z,7.51
2022-11-17T17:39:01.674Z,6.95
2022-11-17T17:41:31.321Z,7.38
2022-11-17T17:44:03.198Z,7.22
2022-11-17T17:46:32.970Z,6.77
2022-11-17T17:49:00.915Z,7.40
2022-11-17T17:51:30.153Z,7.44
2022-11-17T17:54:00.963Z,7.42
2022-11-17T17:56:30.514Z,7.31
2022-11-17T17:59:00.595Z,7.41
2022-11-17T18:01:30.329Z,7.40
2022-11-17T18:04:04.682Z,7.35
2022-11-17T18:06:37.257Z,7.13
2022-11-17T18:09:05.643Z,7.18
2022-11-17T18:11:34.384Z,7.16
2022-11-17T18:14:04.512Z,7.07
2022-11-17T18:16:33.671Z,6.98
2022-11-17T18:19:03.178Z,6.94
2022-11-17T18:21:31.867Z,6.79
2022-11-17T18:24:01.591Z,6.83
2022-11-17T18:26:31.189Z,6.74
2022-11-17T18:29:01.199Z,6.70
2022-11-17T18:31:32.477Z,6.68
2022-11-17T18:34:02.889Z,6.65
2022-11-17T18:36:30.964Z,6.63
2022-11-17T18:38:59.436Z,6.71
2022-11-17T18:41:30.633Z,6.64
2022-11-17T18:43:59.064Z,6.39
2022-11-17T18:46:28.733Z,6.42
2022-11-17T18:48:58.661Z,6.61
2022-11-17T18:51:28.169Z,6.70
2022-11-17T18:53:57.907Z,6.71
2022-11-17T18:56:27.925Z,6.65
2022-11-17T18:58:56.306Z,6.02
2022-11-17T19:01:25.896Z,6.73
2022-11-17T19:03:55.633Z,6.77
2022-11-17T19:06:26.309Z,6.76
2022-11-17T19:08:54.947Z,6.79
2022-11-17T19:11:24.548Z,6.78
2022-11-17T19:13:52.618Z,6.74
2022-11-17T19:16:22.753Z,6.72
2022-11-17T19:18:52.562Z,6.47
2022-11-17T19:21:22.438Z,6.65
2022-11-17T19:23:52.468Z,6.48
2022-11-17T19:26:22.028Z,6.57
2022-11-17T19:28:50.860Z,6.66
2022-11-17T19:31:20.870Z,6.65
2022-11-17T19:33:50.006Z,6.73
2022-11-17T19:36:20.002Z,6.74
2022-11-17T19:38:50.021Z,6.75
2022-11-17T19:41:21.537Z,6.74
2022-11-17T19:43:49.915Z,6.60
2022-11-17T19:46:18.563Z,6.74
2022-11-17T19:48:46.630Z,6.32
2022-11-17T19:51:18.454Z,6.53
2022-11-17T19:53:46.734Z,6.51
2022-11-17T19:56:15.455Z,6.68
2022-11-17T19:58:45.812Z,6.70
2022-11-17T20:01:14.834Z,6.70
2022-11-17T20:03:43.424Z,6.70
2022-11-17T20:06:13.345Z,6.75
2022-11-17T20:08:41.937Z,6.51
2022-11-17T20:11:12.513Z,6.80
2022-11-17T20:13:41.536Z,6.40
2022-11-17T20:16:13.908Z,6.70
2022-11-17T20:18:42.800Z,6.72
2022-11-17T20:21:13.795Z,6.60
2022-11-17T20:23:42.032Z,6.74
2022-11-17T20:26:13.680Z,6.84
2022-11-17T20:28:41.845Z,6.02
2022-11-17T20:31:13.582Z,6.55
2022-11-17T20:33:43.136Z,6.45
2022-11-17T20:36:17.528Z,6.59
2022-11-17T20:38:46.314Z,6.54
2022-11-17T20:41:14.206Z,6.51
2022-11-17T20:43:42.124Z,6.40
2022-11-17T20:46:11.680Z,6.42
2022-11-17T20:48:39.660Z,6.64
2022-11-17T20:51:10.822Z,6.60
2022-11-17T20:53:39.790Z,6.40
2022-11-17T20:56:09.833Z,6.56
2022-11-17T20:58:38.258Z,6.50
2022-11-17T21:01:09.921Z,6.62
2022-11-17T21:03:39.980Z,6.35
2022-11-17T21:06:08.805Z,6.41
2022-11-17T21:08:38.857Z,6.72
2022-11-17T21:11:08.551Z,6.73
2022-11-17T21:13:37.763Z,6.20
2022-11-17T21:16:08.205Z,6.80
2022-11-17T21:18:37.312Z,6.61
2022-11-17T21:21:09.134Z,6.75
2022-11-17T21:23:37.747Z,6.78
2022-11-17T21:26:06.841Z,6.67
2022-11-17T21:28:35.482Z,6.65
2022-11-17T21:31:06.860Z,6.76
2022-11-17T21:33:35.342Z,6.83
2022-11-17T21:36:03.818Z,6.74
2022-11-17T21:38:33.342Z,6.74
2022-11-17T21:41:06.138Z,6.60
2022-11-17T21:43:38.511Z,6.66
2022-11-17T21:46:08.438Z,6.76
2022-11-17T21:48:37.759Z,6.78
2022-11-17T21:51:07.477Z,6.78
2022-11-17T21:53:36.805Z,6.76
2022-11-17T21:56:08.045Z,6.77
2022-11-17T21:58:36.572Z,6.84
2022-11-17T22:01:08.537Z,6.91
2022-11-17T22:03:37.090Z,6.75
2022-11-17T22:06:10.365Z,6.92
2022-11-17T22:08:41.566Z,6.91
2022-11-17T22:11:12.654Z,6.95
2022-11-17T22:13:41.386Z,6.96
2022-11-17T22:16:12.358Z,6.96
2022-11-17T22:18:40.596Z,6.99
2022-11-17T22:21:09.505Z,6.71
2022-11-17T22:23:39.035Z,7.12
2022-11-17T22:26:07.332Z,7.18
2022-11-17T22:28:35.321Z,7.15
2022-11-17T22:31:06.385Z,6.88
2022-11-17T22:33:35.053Z,7.21
2022-11-17T22:36:03.854Z,7.27
2022-11-17T22:38:31.974Z,6.70
2022-11-17T22:41:02.507Z,7.27
2022-11-17T22:43:30.726Z,7.23
2022-11-17T22:46:01.748Z,7.22
2022-11-17T22:48:29.840Z,7.23
2022-11-17T22:50:59.553Z,7.21
2022-11-17T22:53:28.203Z,7.31
2022-11-17T22:55:56.470Z,7.29
2022-11-17T22:58:25.835Z,7.29
2022-11-17T23:00:54.043Z,7.27
2022-11-17T23:03:22.007Z,7.28
2022-11-17T23:05:50.111Z,7.25
2022-11-17T23:08:18.091Z,7.19
2022-11-17T23:10:46.126Z,7.19
2022-11-17T23:13:14.037Z,7.19
2022-11-17T23:15:43.487Z,7.16
2022-11-17T23:18:11.421Z,7.17
2022-11-17T23:20:40.242Z,7.13
2022-11-17T23:23:08.341Z,7.19
2022-11-17T23:25:36.741Z,7.15
2022-11-17T23:28:05.166Z,6.35
2022-11-17T23:30:34.294Z,7.13
2022-11-17T23:33:03.844Z,6.93
2022-11-17T23:35:31.781Z,7.05
2022-11-17T23:38:00.057Z,7.00
2022-11-17T23:40:28.041Z,6.94
2022-11-17T23:42:56.036Z,6.92
2022-11-17T23:45:23.970Z,6.88
2022-11-17T23:47:51.787Z,6.35
2022-11-17T23:50:21.361Z,6.82
2022-11-17T23:52:49.227Z,6.78
2022-11-17T23:55:17.406Z,6.33
2022-11-17T23:57:45.499Z,6.70
